createdAt,value
2018-04-18T00:01:26.983Z,11.67
2018-04-18T00:03:54.832Z,10.50
2018-04-18T00:06:22.316Z,10.50
2018-04-18T00:08:51.349Z,10.43
2018-04-18T00:11:19.025Z,11.67
2018-04-18T00:13:46.521Z,15.43
2018-04-18T00:16:14.776Z,10.73
2018-04-18T00:18:42.276Z,11.20
2018-04-18T00:21:09.858Z,10.27
2018-04-18T00:23:37.693Z,11.07
2018-04-18T00:26:05.205Z,9.43
2018-04-18T00:28:32.694Z,9.33
2018-04-18T00:31:01.371Z,9.43
2018-04-18T00:33:28.984Z,10.37
2018-04-18T00:35:56.472Z,9.57
2018-04-18T00:38:23.969Z,8.87
2018-04-18T00:40:52.140Z,11.53
2018-04-18T00:43:19.801Z,10.90
2018-04-18T00:45:47.686Z,9.03
2018-04-18T00:48:15.177Z,8.30
2018-04-18T00:50:42.797Z,9.17
2018-04-18T00:53:10.282Z,8.50
2018-04-18T00:55:38.345Z,9.03
2018-04-18T00:58:05.837Z,9.90
2018-04-18T01:00:33.336Z,8.30
2018-04-18T01:03:02.124Z,8.40
2018-04-18T01:05:29.766Z,8.80
2018-04-18T01:07:57.441Z,9.07
2018-04-18T01:10:26.481Z,8.30
2018-04-18T01:12:54.002Z,8.73
2018-04-18T01:15:21.686Z,8.80
2018-04-18T01:17:49.202Z,10.73
2018-04-18T01:20:17.298Z,9.10
2018-04-18T01:22:45.095Z,9.87
2018-04-18T01:25:12.596Z,11.33
2018-04-18T01:27:40.088Z,9.93
2018-04-18T01:30:08.150Z,8.50
2018-04-18T01:32:36.029Z,9.93
2018-04-18T01:35:03.884Z,8.93
2018-04-18T01:37:31.383Z,10.23
2018-04-18T01:39:58.902Z,8.93
2018-04-18T01:42:26.808Z,8.50
2018-04-18T01:44:54.320Z,8.87
2018-04-18T01:47:21.871Z,8.10
2018-04-18T01:49:50.162Z,9.13
2018-04-18T01:52:17.890Z,8.33
2018-04-18T01:54:45.797Z,8.50
2018-04-18T01:57:13.646Z,9.17
2018-04-18T01:59:41.497Z,8.20
2018-04-18T02:02:09.269Z,10.50
2018-04-18T02:04:37.661Z,9.53
2018-04-18T02:07:05.164Z,7.80
2018-04-18T02:09:32.666Z,9.03
2018-04-18T02:12:01.905Z,8.60
2018-04-18T02:14:29.523Z,12.20
2018-04-18T02:16:57.801Z,8.67
2018-04-18T02:19:26.410Z,9.40
2018-04-18T02:21:53.954Z,8.43
2018-04-18T02:24:21.709Z,8.73
2018-04-18T02:26:49.329Z,9.73
2018-04-18T02:29:16.862Z,10.23
2018-04-18T02:31:45.642Z,8.33
2018-04-18T02:34:13.130Z,8.33
2018-04-18T02:36:40.848Z,7.40
2018-04-18T02:39:08.330Z,9.27
2018-04-18T02:41:35.813Z,8.33
2018-04-18T02:44:03.309Z,10.73
2018-04-18T02:46:31.001Z,9.47
2018-04-18T02:48:58.798Z,8.63
2018-04-18T02:51:26.334Z,11.10
2018-04-18T02:53:53.844Z,8.30
2018-04-18T02:56:22.154Z,8.50
2018-04-18T02:58:49.816Z,8.17
2018-04-18T03:01:17.316Z,8.87
2018-04-18T03:03:45.929Z,8.40
2018-04-18T03:06:13.425Z,7.87
2018-04-18T03:08:41.361Z,8.97
2018-04-18T03:11:09.112Z,7.90
2018-04-18T03:13:38.118Z,9.13
2018-04-18T03:16:05.604Z,8.07
2018-04-18T03:18:33.092Z,9.07
2018-04-18T03:21:00.687Z,9.17
2018-04-18T03:23:28.449Z,9.97
2018-04-18T03:25:56.705Z,8.97
2018-04-18T03:28:25.729Z,9.33
2018-04-18T03:30:53.679Z,10.57
2018-04-18T03:33:21.725Z,9.40
2018-04-18T03:35:49.203Z,9.63
2018-04-18T03:38:17.189Z,9.13
2018-04-18T03:40:47.027Z,8.87
2018-04-18T03:43:14.500Z,14.20
2018-04-18T03:45:42.346Z,8.97
2018-04-18T03:48:10.197Z,8.83
2018-04-18T03:50:37.686Z,11.03
2018-04-18T03:53:05.193Z,9.30
2018-04-18T03:55:33.446Z,9.23
2018-04-18T03:58:01.274Z,12.07
2018-04-18T04:00:29.110Z,9.10
2018-04-18T04:02:56.598Z,9.30
2018-04-18T04:05:24.675Z,8.97
2018-04-18T04:07:52.586Z,9.20
2018-04-18T04:10:20.090Z,9.50
2018-04-18T04:12:47.623Z,10.63
2018-04-18T04:15:15.715Z,9.60
2018-04-18T04:17:55.020Z,9.67
2018-04-18T04:20:34.587Z,15.50
2018-04-18T04:23:13.730Z,8.77
2018-04-18T04:25:41.700Z,8.80
2018-04-18T04:28:09.557Z,9.13
2018-04-18T04:30:37.615Z,10.90
2018-04-18T04:33:05.603Z,11.27
2018-04-18T04:35:33.232Z,9.87
2018-04-18T04:38:00.732Z,10.83
2018-04-18T04:40:28.355Z,10.97
2018-04-18T04:42:56.133Z,17.70
2018-04-18T04:45:23.687Z,10.27
2018-04-18T04:47:51.179Z,10.63
2018-04-18T04:50:18.804Z,12.03
2018-04-18T04:52:46.309Z,8.93
2018-04-18T04:55:14.125Z,9.93
2018-04-18T04:57:41.792Z,8.93
2018-04-18T05:00:09.280Z,8.57
2018-04-18T05:02:36.956Z,9.40
2018-04-18T05:05:06.609Z,8.13
2018-04-18T05:07:34.098Z,8.63
2018-04-18T05:10:02.022Z,9.17
2018-04-18T05:12:30.275Z,11.03
2018-04-18T05:14:58.898Z,10.20
2018-04-18T05:17:26.587Z,11.20
2018-04-18T05:19:54.084Z,12.97
2018-04-18T05:22:22.168Z,11.27
2018-04-18T05:24:50.064Z,9.70
2018-04-18T05:27:18.675Z,11.73
2018-04-18T05:29:46.705Z,9.87
2018-04-18T05:32:14.207Z,9.40
2018-04-18T05:34:42.229Z,12.50
2018-04-18T05:37:09.749Z,12.03
2018-04-18T05:39:37.674Z,10.17
2018-04-18T05:42:05.624Z,10.13
2018-04-18T05:44:34.007Z,10.00
2018-04-18T05:47:01.493Z,10.70
2018-04-18T05:49:28.980Z,9.33
2018-04-18T05:51:56.580Z,11.77
2018-04-18T05:54:24.932Z,10.07
2018-04-18T05:56:53.034Z,11.77
2018-04-18T05:59:21.727Z,12.63
2018-04-18T06:01:49.386Z,9.90
2018-04-18T06:04:17.719Z,9.93
2018-04-18T06:06:45.208Z,10.07
2018-04-18T06:09:13.810Z,7.97
2018-04-18T06:11:41.317Z,7.30
2018-04-18T06:14:09.275Z,7.93
2018-04-18T06:16:36.802Z,8.60
2018-04-18T06:19:04.743Z,9.10
2018-04-18T06:21:33.083Z,9.17
2018-04-18T06:24:00.595Z,5.87
2018-04-18T06:26:28.332Z,9.87
2018-04-18T06:28:57.236Z,6.40
2018-04-18T06:31:24.918Z,8.73
2018-04-18T06:33:52.412Z,7.40
2018-04-18T06:36:20.534Z,6.60
2018-04-18T06:38:48.828Z,6.30
2018-04-18T06:41:16.393Z,7.40
2018-04-18T06:43:44.343Z,5.57
2018-04-18T06:46:11.849Z,6.17
2018-04-18T06:48:39.666Z,10.30
2018-04-18T06:51:07.173Z,6.53
2018-04-18T06:53:34.900Z,6.10
2018-04-18T06:56:02.578Z,6.03
2018-04-18T06:58:30.067Z,8.20
2018-04-18T07:00:57.863Z,6.10
2018-04-18T07:03:26.312Z,5.60
2018-04-18T07:05:54.426Z,5.90
2018-04-18T07:08:21.970Z,6.50
2018-04-18T07:10:49.477Z,6.40
2018-04-18T07:13:17.398Z,9.10
2018-04-18T07:15:45.284Z,6.53
2018-04-18T07:18:12.764Z,7.33
2018-04-18T07:20:40.274Z,7.73
2018-04-18T07:23:08.928Z,7.37
2018-04-18T07:25:36.729Z,8.40
2018-04-18T07:28:05.743Z,6.77
2018-04-18T07:30:33.501Z,5.73
2018-04-18T07:33:01.018Z,6.50
2018-04-18T07:35:29.349Z,5.27
2018-04-18T07:37:56.846Z,5.93
2018-04-18T07:40:24.750Z,6.90
2018-04-18T07:42:53.954Z,8.07
2018-04-18T07:45:21.716Z,7.20
2018-04-18T07:47:49.369Z,7.32
2018-04-18T07:50:16.871Z,7.60
2018-04-18T07:52:44.381Z,8.43
2018-04-18T07:55:11.929Z,7.23
2018-04-18T07:57:40.730Z,7.47
2018-04-18T08:00:08.228Z,7.85
2018-04-18T08:02:36.064Z,7.18
2018-04-18T08:05:03.755Z,8.85
2018-04-18T08:07:31.516Z,8.45
2018-04-18T08:09:59.001Z,7.22
2018-04-18T08:12:26.517Z,7.40
2018-04-18T08:14:54.019Z,8.63
2018-04-18T08:17:21.968Z,7.97
2018-04-18T08:19:49.733Z,8.20
2018-04-18T08:22:17.230Z,8.85
2018-04-18T08:24:45.255Z,7.50
2018-04-18T08:27:13.056Z,7.95
2018-04-18T08:29:40.547Z,9.32
2018-04-18T08:32:08.044Z,8.18
2018-04-18T08:34:35.524Z,9.90
2018-04-18T08:37:03.462Z,8.70
2018-04-18T08:39:30.942Z,8.68
2018-04-18T08:41:58.439Z,8.00
2018-04-18T08:44:26.955Z,8.90
2018-04-18T08:46:54.444Z,9.07
2018-04-18T08:49:23.232Z,9.52
2018-04-18T08:51:50.721Z,9.18
2018-04-18T08:54:18.224Z,9.50
2018-04-18T08:56:45.717Z,9.00
2018-04-18T08:59:13.222Z,9.23
2018-04-18T09:01:40.732Z,8.88
2018-04-18T09:04:08.253Z,8.85
2018-04-18T09:06:36.660Z,8.75
2018-04-18T09:09:04.185Z,10.30
2018-04-18T09:11:31.715Z,13.27
2018-04-18T09:14:00.106Z,9.50
2018-04-18T09:16:27.817Z,9.52
2018-04-18T09:18:55.337Z,9.63
2018-04-18T09:21:23.219Z,10.23
2018-04-18T09:23:51.019Z,9.70
2018-04-18T09:26:19.444Z,9.60
2018-04-18T09:28:47.088Z,13.20
2018-04-18T09:31:15.459Z,10.87
2018-04-18T09:33:43.719Z,10.23
2018-04-18T09:36:11.227Z,8.83
2018-04-18T09:38:38.743Z,9.13
2018-04-18T09:41:07.386Z,9.23
2018-04-18T09:43:34.889Z,8.97
2018-04-18T09:46:03.509Z,8.97
2018-04-18T09:48:31.075Z,9.77
2018-04-18T09:50:58.895Z,11.33
2018-04-18T09:53:27.180Z,8.93
2018-04-18T09:55:55.196Z,6.60
2018-04-18T09:58:22.768Z,7.53
2018-04-18T10:00:56.195Z,10.07
2018-04-18T10:03:23.908Z,8.00
2018-04-18T10:05:52.259Z,10.00
2018-04-18T10:08:19.957Z,6.90
2018-04-18T10:10:48.011Z,6.10
2018-04-18T10:13:15.975Z,7.97
2018-04-18T10:15:43.568Z,5.87
2018-04-18T10:18:11.370Z,6.83
2018-04-18T10:20:40.213Z,6.33
2018-04-18T10:23:09.061Z,8.83
2018-04-18T10:25:36.949Z,8.50
2018-04-18T10:28:04.485Z,8.17
2018-04-18T10:30:31.958Z,6.27
2018-04-18T10:32:59.449Z,6.23
2018-04-18T10:35:26.969Z,8.47
2018-04-18T10:37:54.818Z,7.83
2018-04-18T10:40:22.594Z,11.83
2018-04-18T10:42:50.111Z,7.93
2018-04-18T13:45:29.186Z,10.53
2018-04-18T13:47:56.720Z,8.90
2018-04-18T13:50:24.227Z,11.10
2018-04-18T13:52:51.844Z,15.50
2018-04-18T13:55:19.660Z,11.10
2018-04-18T13:57:47.465Z,10.13
2018-04-18T14:00:15.066Z,11.57
2018-04-18T14:02:42.831Z,10.23
2018-04-18T14:05:10.356Z,9.50
2018-04-18T14:07:38.221Z,9.60
2018-04-18T14:10:05.770Z,10.70
2018-04-18T14:12:33.342Z,12.90
2018-04-18T14:15:00.842Z,11.37
2018-04-18T14:17:28.670Z,9.73
2018-04-18T14:19:56.933Z,10.17
2018-04-18T14:22:24.438Z,10.50
2018-04-18T14:24:52.339Z,8.63
2018-04-18T14:27:20.423Z,8.00
2018-04-18T14:29:48.228Z,8.00
2018-04-18T14:32:15.890Z,12.43
2018-04-18T14:34:43.624Z,10.63
2018-04-18T14:37:12.432Z,8.27
2018-04-18T14:39:44.126Z,8.73
2018-04-18T14:42:12.071Z,10.70
2018-04-18T14:44:39.589Z,9.63
2018-04-18T14:47:07.312Z,11.20
2018-04-18T14:49:35.200Z,11.67
2018-04-18T14:52:04.335Z,9.30
2018-04-18T14:54:31.986Z,9.93
2018-04-18T14:56:59.489Z,10.30
2018-04-18T14:59:27.230Z,11.03
2018-04-18T15:01:54.722Z,10.47
2018-04-18T15:04:22.584Z,10.57
2018-04-18T15:06:50.095Z,8.33
2018-04-18T15:09:18.127Z,10.53
2018-04-18T15:11:45.674Z,11.13
2018-04-18T15:14:13.362Z,10.17
2018-04-18T15:16:40.922Z,12.13
2018-04-18T15:19:08.431Z,12.83
2018-04-18T15:21:36.162Z,10.07
2018-04-18T15:24:03.698Z,11.40
2018-04-18T15:26:31.456Z,8.37
2018-04-18T15:28:58.962Z,13.07
2018-04-18T15:31:26.975Z,12.17
2018-04-18T15:33:54.497Z,9.20
2018-04-18T15:36:22.651Z,10.67
2018-04-18T15:38:50.482Z,8.90
2018-04-18T15:41:18.338Z,9.23
2018-04-18T15:43:46.020Z,8.87
2018-04-18T15:46:13.539Z,8.10
2018-04-18T15:48:41.082Z,10.20
2018-04-18T15:51:08.596Z,10.97
2018-04-18T15:53:36.332Z,9.77
2018-04-18T15:56:04.427Z,11.13
2018-04-18T15:58:31.943Z,10.00
2018-04-18T16:01:00.316Z,9.67
2018-04-18T16:03:28.781Z,12.63
2018-04-18T16:05:56.430Z,11.37
2018-04-18T16:08:24.207Z,11.37
2018-04-18T16:10:52.208Z,10.80
2018-04-18T16:13:20.026Z,9.37
2018-04-18T16:15:48.205Z,8.50
2018-04-18T16:18:16.436Z,9.00
2018-04-18T16:20:44.020Z,11.93
2018-04-18T16:23:11.646Z,10.27
2018-04-18T16:25:39.625Z,12.47
2018-04-18T16:28:08.082Z,12.63
2018-04-18T16:30:42.626Z,13.30
2018-04-18T16:33:10.773Z,9.53
2018-04-18T16:35:41.420Z,11.87
2018-04-18T16:38:09.116Z,10.17
2018-04-18T16:40:36.624Z,11.77
2018-04-18T16:43:04.206Z,11.97
2018-04-18T16:45:31.841Z,12.67
2018-04-18T16:47:59.779Z,12.20
2018-04-18T16:50:27.606Z,10.57
2018-04-18T16:52:55.774Z,10.63
2018-04-18T16:55:23.303Z,11.30
2018-04-18T16:57:51.410Z,12.17
2018-04-18T17:00:19.472Z,12.67
2018-04-18T17:02:47.848Z,12.07
2018-04-18T17:05:16.314Z,10.90
2018-04-18T17:07:44.067Z,12.07
2018-04-18T17:10:12.801Z,12.97
2018-04-18T17:12:41.318Z,12.13
2018-04-18T17:15:09.744Z,14.47
2018-04-18T17:17:37.652Z,10.70
2018-04-18T17:20:05.301Z,14.03
2018-04-18T17:22:33.244Z,13.27
2018-04-18T17:25:00.960Z,11.80
2018-04-18T17:27:29.167Z,12.47
2018-04-18T17:29:57.847Z,12.60
2018-04-18T17:32:26.886Z,12.70
2018-04-18T17:34:55.029Z,11.23
2018-04-18T17:37:22.818Z,12.07
2018-04-18T17:39:50.445Z,12.47
2018-04-18T17:42:18.857Z,14.83
2018-04-18T17:44:46.346Z,12.10
2018-04-18T17:47:13.865Z,11.37
2018-04-18T17:49:41.601Z,14.70
2018-04-18T17:52:09.481Z,13.13
2018-04-18T17:54:37.110Z,12.73
2018-04-18T17:57:05.735Z,12.17
2018-04-18T17:59:34.339Z,13.37
2018-04-18T18:02:01.835Z,14.00
2018-04-18T18:04:29.477Z,19.50
2018-04-18T18:06:58.141Z,16.90
2018-04-18T18:09:26.528Z,13.47
2018-04-18T18:11:54.606Z,16.10
2018-04-18T18:14:23.896Z,14.83
2018-04-18T18:16:52.763Z,14.10
2018-04-18T18:19:21.628Z,14.37
2018-04-18T18:21:49.376Z,13.50
2018-04-18T18:24:17.049Z,14.63
2018-04-18T18:26:44.926Z,14.67
2018-04-18T18:29:14.183Z,16.60
2018-04-18T18:31:41.699Z,18.13
2018-04-18T18:34:09.979Z,16.03
2018-04-18T18:36:38.675Z,16.00
2018-04-18T18:39:07.918Z,16.85
2018-04-18T18:41:36.310Z,17.95
2018-04-18T18:44:04.413Z,16.23
2018-04-18T18:46:32.316Z,16.07
2018-04-18T18:49:00.998Z,15.60
2018-04-18T18:51:28.515Z,14.77
2018-04-18T18:53:56.908Z,16.73
2018-04-18T18:56:26.163Z,16.37
2018-04-18T18:58:53.792Z,17.27
2018-04-18T19:01:21.611Z,17.90
2018-04-18T19:03:51.113Z,17.07
2018-04-18T19:06:18.617Z,19.03
2018-04-18T19:08:48.557Z,18.67
2018-04-18T19:11:16.504Z,18.77
2018-04-18T19:13:44.015Z,17.77
2018-04-18T19:16:11.501Z,18.80
2018-04-18T19:18:39.318Z,21.43
2018-04-18T19:21:09.607Z,17.00
2018-04-18T19:23:37.141Z,20.33
2018-04-18T19:26:05.288Z,20.07
2018-04-18T19:28:33.647Z,24.23
2018-04-18T19:31:01.868Z,17.17
2018-04-18T19:33:30.140Z,18.30
2018-04-18T19:36:01.989Z,20.37
2018-04-18T19:38:30.105Z,18.33
2018-04-18T19:40:57.644Z,17.57
2018-04-18T19:43:25.744Z,15.63
2018-04-18T19:45:53.801Z,17.73
2018-04-18T19:48:21.305Z,16.73
2018-04-18T19:50:49.069Z,24.90
2018-04-18T19:53:16.989Z,18.43
2018-04-18T19:55:44.492Z,18.47
2018-04-18T19:58:12.111Z,17.10
2018-04-18T20:00:40.037Z,18.33
2018-04-18T20:03:07.525Z,21.30
2018-04-18T20:05:35.287Z,16.30
2018-04-18T20:08:04.106Z,17.97
2018-04-18T20:10:31.627Z,17.93
2018-04-18T20:12:59.129Z,17.23
2018-04-18T20:15:26.643Z,19.30
2018-04-18T20:17:55.862Z,18.93
2018-04-18T20:20:23.940Z,17.73
2018-04-18T20:22:51.451Z,17.07
2018-04-18T20:25:19.720Z,17.97
2018-04-18T20:27:47.235Z,17.03
2018-04-18T20:30:14.789Z,17.80
2018-04-18T20:32:42.943Z,17.60
2018-04-18T20:35:10.489Z,20.40
2018-04-18T20:37:38.036Z,19.33
2018-04-18T20:40:05.797Z,21.93
2018-04-18T20:42:33.349Z,16.73
2018-04-18T20:45:01.269Z,19.87
2018-04-18T20:47:29.138Z,19.63
2018-04-18T20:49:57.103Z,20.93
2018-04-18T20:52:24.629Z,18.40
2018-04-18T20:54:53.181Z,19.67
2018-04-18T20:57:20.693Z,20.30
2018-04-18T20:59:50.091Z,19.23
2018-04-18T21:02:17.660Z,21.80
2018-04-18T21:04:46.294Z,19.47
2018-04-18T21:07:14.192Z,19.67
2018-04-18T21:09:41.866Z,19.17
2018-04-18T21:12:09.363Z,21.90
2018-04-18T21:14:37.002Z,20.70
2018-04-18T21:17:04.523Z,21.77
2018-04-18T21:19:32.428Z,20.67
2018-04-18T21:21:59.975Z,20.37
2018-04-18T21:24:27.728Z,20.00
2018-04-18T21:26:55.615Z,20.53
2018-04-18T21:29:24.105Z,20.63
2018-04-18T21:31:51.843Z,20.33
2018-04-18T21:34:19.508Z,19.33
2018-04-18T21:36:47.296Z,21.53
2018-04-18T21:39:14.890Z,20.87
2018-04-18T21:41:42.633Z,20.07
2018-04-18T21:44:10.457Z,21.33
2018-04-18T21:46:37.953Z,23.13
2018-04-18T21:49:05.774Z,21.80
2018-04-18T21:51:33.330Z,21.23
2018-04-18T21:54:02.575Z,22.27
2018-04-18T21:56:30.493Z,21.80
2018-04-18T21:58:59.100Z,20.63
2018-04-18T22:01:26.945Z,21.80
2018-04-18T22:03:54.611Z,21.73
2018-04-18T22:06:22.687Z,23.97
2018-04-18T22:08:50.537Z,26.60
2018-04-18T22:11:18.031Z,22.10
2018-04-18T22:13:45.817Z,22.90
2018-04-18T22:16:14.361Z,22.77
2018-04-18T22:18:41.864Z,23.17
2018-04-18T22:21:09.903Z,23.90
2018-04-18T22:23:37.398Z,23.60
2018-04-18T22:26:05.171Z,27.10
2018-04-18T22:28:32.677Z,20.70
2018-04-18T22:31:00.445Z,22.50
2018-04-18T22:33:28.204Z,22.23
2018-04-18T22:35:55.808Z,21.53
2018-04-18T22:38:23.819Z,21.77
2018-04-18T22:40:51.480Z,21.67
2018-04-18T22:43:18.961Z,23.93
2018-04-18T22:45:47.269Z,23.23
2018-04-18T22:48:14.810Z,24.23
2018-04-18T22:50:42.660Z,21.33
2018-04-18T22:53:10.497Z,22.93
2018-04-18T22:55:38.577Z,22.60
2018-04-18T22:58:06.163Z,22.67
2018-04-18T23:00:34.088Z,25.17
2018-04-18T23:03:01.588Z,23.80
2018-04-18T23:05:29.432Z,23.93
2018-04-18T23:07:57.033Z,24.23
2018-04-18T23:10:24.551Z,21.67
2018-04-18T23:12:52.405Z,22.67
2018-04-18T23:15:21.002Z,22.60
2018-04-18T23:17:48.729Z,23.83
2018-04-18T23:20:16.326Z,24.20
2018-04-18T23:22:43.816Z,24.67
2018-04-18T23:25:11.463Z,23.67
2018-04-18T23:27:39.107Z,23.93
2018-04-18T23:30:06.783Z,27.67
2018-04-18T23:32:34.303Z,24.83
2018-04-18T23:35:02.653Z,24.63
2018-04-18T23:37:30.577Z,27.30
2018-04-18T23:39:58.249Z,24.63
2018-04-18T23:42:26.285Z,26.47
2018-04-18T23:44:53.768Z,22.83
2018-04-18T23:47:22.003Z,26.53
2018-04-18T23:49:50.996Z,24.33
2018-04-18T23:52:18.485Z,23.73
2018-04-18T23:54:45.993Z,25.57
2018-04-18T23:57:13.720Z,25.90
2018-04-18T23:59:41.234Z,24.00
